sensor_id;sensor_type;location;lat;lon;timestamp;temperature;humidity
5392;DHT22;2719;53.624;9.786;2024-03-08T00:01:26;5.20;33.20
5392;DHT22;2719;53.624;9.786;2024-03-08T00:03:52;5.30;13.10
5392;DHT22;2719;53.624;9.786;2024-03-08T00:06:19;5.30;1.00
5392;DHT22;2719;53.624;9.786;2024-03-08T00:08:45;5.20;1.00
5392;DHT22;2719;53.624;9.786;2024-03-08T00:11:12;5.30;1.00
5392;DHT22;2719;53.624;9.786;2024-03-08T00:13:40;5.30;1.00
5392;DHT22;2719;53.624;9.786;2024-03-08T00:16:07;5.20;1.00
5392;DHT22;2719;53.624;9.786;2024-03-08T00:18:34;5.20;1.00
5392;DHT22;2719;53.624;9.786;2024-03-08T00:21:01;5.00;1.00
5392;DHT22;2719;53.624;9.786;2024-03-08T00:23:27;5.00;1.00
5392;DHT22;2719;53.624;9.786;2024-03-08T00:25:54;5.00;1.00
5392;DHT22;2719;53.624;9.786;2024-03-08T00:28:21;5.00;1.00
5392;DHT22;2719;53.624;9.786;2024-03-08T00:30:51;5.00;1.00
5392;DHT22;2719;53.624;9.786;2024-03-08T00:33:18;5.00;1.00
5392;DHT22;2719;53.624;9.786;2024-03-08T00:35:44;4.90;1.00
5392;DHT22;2719;53.624;9.786;2024-03-08T00:38:11;4.90;1.00
5392;DHT22;2719;53.624;9.786;2024-03-08T00:40:38;4.90;1.00
5392;DHT22;2719;53.624;9.786;2024-03-08T00:43:06;4.90;1.00
5392;DHT22;2719;53.624;9.786;2024-03-08T00:45:32;4.80;1.00
5392;DHT22;2719;53.624;9.786;2024-03-08T00:48:00;4.90;1.00
5392;DHT22;2719;53.624;9.786;2024-03-08T00:50:27;4.90;1.00
5392;DHT22;2719;53.624;9.786;2024-03-08T00:52:53;4.80;1.00
5392;DHT22;2719;53.624;9.786;2024-03-08T00:55:21;4.80;1.00
5392;DHT22;2719;53.624;9.786;2024-03-08T00:57:48;4.80;1.00
5392;DHT22;2719;53.624;9.786;2024-03-08T01:00:15;4.80;1.00
5392;DHT22;2719;53.624;9.786;2024-03-08T01:02:42;4.80;1.00
5392;DHT22;2719;53.624;9.786;2024-03-08T01:05:10;4.80;1.00
5392;DHT22;2719;53.624;9.786;2024-03-08T01:07:37;4.80;1.00
5392;DHT22;2719;53.624;9.786;2024-03-08T01:10:04;4.80;1.00
5392;DHT22;2719;53.624;9.786;2024-03-08T01:12:34;4.80;1.00
5392;DHT22;2719;53.624;9.786;2024-03-08T01:15:01;4.80;1.00
5392;DHT22;2719;53.624;9.786;2024-03-08T01:17:28;4.80;1.00
5392;DHT22;2719;53.624;9.786;2024-03-08T01:19:55;4.80;1.00
5392;DHT22;2719;53.624;9.786;2024-03-08T01:22:23;4.70;1.00
5392;DHT22;2719;53.624;9.786;2024-03-08T01:24:49;4.70;1.00
5392;DHT22;2719;53.624;9.786;2024-03-08T01:27:16;4.70;2.80
5392;DHT22;2719;53.624;9.786;2024-03-08T01:29:43;4.60;34.50
5392;DHT22;2719;53.624;9.786;2024-03-08T01:32:09;4.70;29.30
5392;DHT22;2719;53.624;9.786;2024-03-08T01:34:37;4.60;37.60
5392;DHT22;2719;53.624;9.786;2024-03-08T01:37:04;4.50;99.90
5392;DHT22;2719;53.624;9.786;2024-03-08T01:39:33;4.50;99.90
5392;DHT22;2719;53.624;9.786;2024-03-08T01:42:00;4.60;99.90
5392;DHT22;2719;53.624;9.786;2024-03-08T01:44:27;4.50;86.50
5392;DHT22;2719;53.624;9.786;2024-03-08T01:46:53;4.50;89.20
5392;DHT22;2719;53.624;9.786;2024-03-08T01:49:21;4.50;99.90
5392;DHT22;2719;53.624;9.786;2024-03-08T01:51:49;4.50;99.50
5392;DHT22;2719;53.624;9.786;2024-03-08T01:54:18;4.50;99.90
5392;DHT22;2719;53.624;9.786;2024-03-08T01:56:47;4.40;99.90
5392;DHT22;2719;53.624;9.786;2024-03-08T01:59:14;4.40;99.90
5392;DHT22;2719;53.624;9.786;2024-03-08T02:01:42;4.40;99.90
5392;DHT22;2719;53.624;9.786;2024-03-08T02:04:09;4.50;97.50
5392;DHT22;2719;53.624;9.786;2024-03-08T02:06:36;4.40;99.90
5392;DHT22;2719;53.624;9.786;2024-03-08T02:09:04;4.40;99.90
5392;DHT22;2719;53.624;9.786;2024-03-08T02:11:33;4.40;99.90
5392;DHT22;2719;53.624;9.786;2024-03-08T02:14:01;4.40;99.90
5392;DHT22;2719;53.624;9.786;2024-03-08T02:16:28;4.40;92.60
5392;DHT22;2719;53.624;9.786;2024-03-08T02:18:54;4.40;99.90
5392;DHT22;2719;53.624;9.786;2024-03-08T02:21:23;4.40;96.60
5392;DHT22;2719;53.624;9.786;2024-03-08T02:23:49;4.40;99.90
5392;DHT22;2719;53.624;9.786;2024-03-08T02:26:17;4.40;99.90
5392;DHT22;2719;53.624;9.786;2024-03-08T02:28:44;4.40;86.60
5392;DHT22;2719;53.624;9.786;2024-03-08T02:31:11;4.40;98.30
5392;DHT22;2719;53.624;9.786;2024-03-08T02:33:38;4.40;99.90
5392;DHT22;2719;53.624;9.786;2024-03-08T02:36:05;4.40;99.90
5392;DHT22;2719;53.624;9.786;2024-03-08T02:38:34;4.40;66.60
5392;DHT22;2719;53.624;9.786;2024-03-08T02:41:00;4.40;22.60
5392;DHT22;2719;53.624;9.786;2024-03-08T02:43:29;4.40;62.60
5392;DHT22;2719;53.624;9.786;2024-03-08T02:45:55;4.40;52.90
5392;DHT22;2719;53.624;9.786;2024-03-08T02:48:22;4.40;25.20
5392;DHT22;2719;53.624;9.786;2024-03-08T02:50:49;4.40;12.70
5392;DHT22;2719;53.624;9.786;2024-03-08T02:53:17;4.40;7.10
5392;DHT22;2719;53.624;9.786;2024-03-08T02:55:45;4.40;1.00
5392;DHT22;2719;53.624;9.786;2024-03-08T02:58:12;4.30;28.40
5392;DHT22;2719;53.624;9.786;2024-03-08T03:00:40;4.40;36.40
5392;DHT22;2719;53.624;9.786;2024-03-08T03:03:06;4.30;11.90
5392;DHT22;2719;53.624;9.786;2024-03-08T03:05:33;4.30;37.40
5392;DHT22;2719;53.624;9.786;2024-03-08T03:08:00;4.30;18.30
5392;DHT22;2719;53.624;9.786;2024-03-08T03:10:27;4.30;1.00
5392;DHT22;2719;53.624;9.786;2024-03-08T03:12:55;4.20;23.50
5392;DHT22;2719;53.624;9.786;2024-03-08T03:15:22;4.20;35.90
5392;DHT22;2719;53.624;9.786;2024-03-08T03:17:50;4.10;29.20
5392;DHT22;2719;53.624;9.786;2024-03-08T03:20:17;4.10;61.60
5392;DHT22;2719;53.624;9.786;2024-03-08T03:22:48;4.10;72.30
5392;DHT22;2719;53.624;9.786;2024-03-08T03:25:17;4.10;27.40
5392;DHT22;2719;53.624;9.786;2024-03-08T03:27:49;4.10;16.30
5392;DHT22;2719;53.624;9.786;2024-03-08T03:30:17;4.10;1.00
5392;DHT22;2719;53.624;9.786;2024-03-08T03:32:47;4.10;1.00
5392;DHT22;2719;53.624;9.786;2024-03-08T03:35:15;4.00;1.00
5392;DHT22;2719;53.624;9.786;2024-03-08T03:37:41;4.00;1.00
5392;DHT22;2719;53.624;9.786;2024-03-08T03:40:11;4.00;1.00
5392;DHT22;2719;53.624;9.786;2024-03-08T03:42:38;4.10;1.00
5392;DHT22;2719;53.624;9.786;2024-03-08T03:45:05;4.00;1.00
5392;DHT22;2719;53.624;9.786;2024-03-08T03:47:33;4.00;1.00
5392;DHT22;2719;53.624;9.786;2024-03-08T03:50:00;4.10;1.00
5392;DHT22;2719;53.624;9.786;2024-03-08T03:52:28;4.10;1.80
5392;DHT22;2719;53.624;9.786;2024-03-08T03:54:55;4.10;4.70
5392;DHT22;2719;53.624;9.786;2024-03-08T03:57:22;4.00;4.40
5392;DHT22;2719;53.624;9.786;2024-03-08T03:59:49;4.00;22.40
5392;DHT22;2719;53.624;9.786;2024-03-08T04:02:16;3.90;2.60
5392;DHT22;2719;53.624;9.786;2024-03-08T04:04:44;3.80;60.20
5392;DHT22;2719;53.624;9.786;2024-03-08T04:07:11;3.80;59.80
5392;DHT22;2719;53.624;9.786;2024-03-08T04:09:38;3.90;13.30
5392;DHT22;2719;53.624;9.786;2024-03-08T04:12:05;3.80;1.00
5392;DHT22;2719;53.624;9.786;2024-03-08T04:14:32;3.80;1.00
5392;DHT22;2719;53.624;9.786;2024-03-08T04:16:59;3.80;44.60
5392;DHT22;2719;53.624;9.786;2024-03-08T04:19:26;3.80;33.00
5392;DHT22;2719;53.624;9.786;2024-03-08T04:21:54;3.80;35.50
5392;DHT22;2719;53.624;9.786;2024-03-08T04:24:21;3.80;99.90
5392;DHT22;2719;53.624;9.786;2024-03-08T04:26:48;3.70;99.90
5392;DHT22;2719;53.624;9.786;2024-03-08T04:29:14;3.60;99.90
5392;DHT22;2719;53.624;9.786;2024-03-08T04:31:42;3.60;99.90
5392;DHT22;2719;53.624;9.786;2024-03-08T04:34:10;3.60;99.90
5392;DHT22;2719;53.624;9.786;2024-03-08T04:36:36;3.50;99.90
5392;DHT22;2719;53.624;9.786;2024-03-08T04:39:04;3.40;99.90
5392;DHT22;2719;53.624;9.786;2024-03-08T04:41:31;3.40;99.90
5392;DHT22;2719;53.624;9.786;2024-03-08T04:43:59;3.40;99.90
5392;DHT22;2719;53.624;9.786;2024-03-08T04:46:26;3.30;99.90
5392;DHT22;2719;53.624;9.786;2024-03-08T04:48:54;3.40;99.90
5392;DHT22;2719;53.624;9.786;2024-03-08T04:51:20;3.40;99.90
5392;DHT22;2719;53.624;9.786;2024-03-08T04:53:47;3.40;99.90
5392;DHT22;2719;53.624;9.786;2024-03-08T04:56:15;3.30;99.90
5392;DHT22;2719;53.624;9.786;2024-03-08T04:58:41;3.30;99.90
5392;DHT22;2719;53.624;9.786;2024-03-08T05:01:08;3.30;99.90
5392;DHT22;2719;53.624;9.786;2024-03-08T05:03:36;3.20;99.90
5392;DHT22;2719;53.624;9.786;2024-03-08T05:06:04;3.30;99.90
5392;DHT22;2719;53.624;9.786;2024-03-08T05:08:30;3.30;99.90
5392;DHT22;2719;53.624;9.786;2024-03-08T05:10:58;3.20;99.90
5392;DHT22;2719;53.624;9.786;2024-03-08T05:13:30;3.30;1.00
5392;DHT22;2719;53.624;9.786;2024-03-08T05:15:57;3.30;99.90
5392;DHT22;2719;53.624;9.786;2024-03-08T05:18:23;3.20;99.90
5392;DHT22;2719;53.624;9.786;2024-03-08T05:20:50;3.20;99.90
5392;DHT22;2719;53.624;9.786;2024-03-08T05:23:17;3.20;99.90
5392;DHT22;2719;53.624;9.786;2024-03-08T05:25:45;3.10;1.00
5392;DHT22;2719;53.624;9.786;2024-03-08T05:28:12;3.20;99.90
5392;DHT22;2719;53.624;9.786;2024-03-08T05:30:40;3.30;99.90
5392;DHT22;2719;53.624;9.786;2024-03-08T05:33:06;3.30;99.90
5392;DHT22;2719;53.624;9.786;2024-03-08T05:35:35;3.30;99.90
5392;DHT22;2719;53.624;9.786;2024-03-08T05:38:02;3.30;99.90
5392;DHT22;2719;53.624;9.786;2024-03-08T05:40:29;3.40;99.90
5392;DHT22;2719;53.624;9.786;2024-03-08T05:42:57;3.40;99.90
5392;DHT22;2719;53.624;9.786;2024-03-08T05:45:24;3.40;99.90
5392;DHT22;2719;53.624;9.786;2024-03-08T05:47:53;3.30;99.90
5392;DHT22;2719;53.624;9.786;2024-03-08T05:50:20;3.40;99.90
5392;DHT22;2719;53.624;9.786;2024-03-08T05:52:47;3.40;99.90
5392;DHT22;2719;53.624;9.786;2024-03-08T05:55:15;3.40;99.90
5392;DHT22;2719;53.624;9.786;2024-03-08T05:57:41;3.30;99.90
5392;DHT22;2719;53.624;9.786;2024-03-08T06:00:09;3.40;99.90
5392;DHT22;2719;53.624;9.786;2024-03-08T06:02:37;3.30;99.90
5392;DHT22;2719;53.624;9.786;2024-03-08T06:05:08;3.30;98.00
5392;DHT22;2719;53.624;9.786;2024-03-08T06:07:35;3.30;99.90
5392;DHT22;2719;53.624;9.786;2024-03-08T06:10:02;3.30;99.90
5392;DHT22;2719;53.624;9.786;2024-03-08T06:12:29;3.40;99.90
5392;DHT22;2719;53.624;9.786;2024-03-08T06:14:59;3.30;99.90
5392;DHT22;2719;53.624;9.786;2024-03-08T06:17:25;3.40;99.90
5392;DHT22;2719;53.624;9.786;2024-03-08T06:19:52;3.40;99.90
5392;DHT22;2719;53.624;9.786;2024-03-08T06:22:21;3.40;89.20
5392;DHT22;2719;53.624;9.786;2024-03-08T06:24:47;3.40;71.10
5392;DHT22;2719;53.624;9.786;2024-03-08T06:27:14;3.40;67.20
5392;DHT22;2719;53.624;9.786;2024-03-08T06:29:40;3.30;78.60
5392;DHT22;2719;53.624;9.786;2024-03-08T06:32:07;3.30;97.50
5392;DHT22;2719;53.624;9.786;2024-03-08T06:34:33;3.30;76.00
5392;DHT22;2719;53.624;9.786;2024-03-08T06:37:00;3.30;99.90
5392;DHT22;2719;53.624;9.786;2024-03-08T06:39:28;3.40;99.90
5392;DHT22;2719;53.624;9.786;2024-03-08T06:41:57;3.30;99.90
5392;DHT22;2719;53.624;9.786;2024-03-08T06:44:23;3.40;99.90
5392;DHT22;2719;53.624;9.786;2024-03-08T06:46:51;3.40;99.90
5392;DHT22;2719;53.624;9.786;2024-03-08T06:49:17;3.40;99.90
5392;DHT22;2719;53.624;9.786;2024-03-08T06:51:45;3.40;99.90
5392;DHT22;2719;53.624;9.786;2024-03-08T06:54:11;3.10;99.90
5392;DHT22;2719;53.624;9.786;2024-03-08T06:56:39;3.20;1.00
5392;DHT22;2719;53.624;9.786;2024-03-08T06:59:06;3.30;1.00
5392;DHT22;2719;53.624;9.786;2024-03-08T07:01:36;3.20;1.00
5392;DHT22;2719;53.624;9.786;2024-03-08T07:04:03;3.20;1.00
5392;DHT22;2719;53.624;9.786;2024-03-08T07:06:31;3.30;1.00
5392;DHT22;2719;53.624;9.786;2024-03-08T07:08:59;3.30;1.00
5392;DHT22;2719;53.624;9.786;2024-03-08T07:11:26;3.30;1.00
5392;DHT22;2719;53.624;9.786;2024-03-08T07:13:54;3.40;1.00
5392;DHT22;2719;53.624;9.786;2024-03-08T07:16:21;3.40;1.00
5392;DHT22;2719;53.624;9.786;2024-03-08T07:18:47;3.30;1.00
5392;DHT22;2719;53.624;9.786;2024-03-08T07:21:17;3.40;1.00
5392;DHT22;2719;53.624;9.786;2024-03-08T07:23:45;3.40;1.00
5392;DHT22;2719;53.624;9.786;2024-03-08T07:26:28;3.20;1.00
5392;DHT22;2719;53.624;9.786;2024-03-08T07:28:57;3.10;1.00
5392;DHT22;2719;53.624;9.786;2024-03-08T07:31:25;3.10;1.00
5392;DHT22;2719;53.624;9.786;2024-03-08T07:34:03;3.30;99.90
5392;DHT22;2719;53.624;9.786;2024-03-08T07:36:32;3.40;99.90
5392;DHT22;2719;53.624;9.786;2024-03-08T07:39:00;3.50;99.90
5392;DHT22;2719;53.624;9.786;2024-03-08T07:41:27;3.50;1.00
5392;DHT22;2719;53.624;9.786;2024-03-08T07:43:54;3.70;1.00
5392;DHT22;2719;53.624;9.786;2024-03-08T07:46:22;3.70;1.00
5392;DHT22;2719;53.624;9.786;2024-03-08T07:48:49;3.70;1.00
5392;DHT22;2719;53.624;9.786;2024-03-08T07:51:16;3.80;99.90
5392;DHT22;2719;53.624;9.786;2024-03-08T07:53:43;3.80;1.00
5392;DHT22;2719;53.624;9.786;2024-03-08T07:56:10;4.00;1.00
5392;DHT22;2719;53.624;9.786;2024-03-08T07:58:39;4.10;1.00
5392;DHT22;2719;53.624;9.786;2024-03-08T08:01:06;3.90;1.00
5392;DHT22;2719;53.624;9.786;2024-03-08T08:03:34;4.00;1.00
5392;DHT22;2719;53.624;9.786;2024-03-08T08:06:03;4.10;1.00
5392;DHT22;2719;53.624;9.786;2024-03-08T08:08:30;4.20;1.00
5392;DHT22;2719;53.624;9.786;2024-03-08T08:10:57;4.10;1.00
5392;DHT22;2719;53.624;9.786;2024-03-08T08:13:25;4.10;1.00
5392;DHT22;2719;53.624;9.786;2024-03-08T08:15:53;4.10;1.00
5392;DHT22;2719;53.624;9.786;2024-03-08T08:18:19;4.20;1.00
5392;DHT22;2719;53.624;9.786;2024-03-08T08:20:51;4.30;1.00
5392;DHT22;2719;53.624;9.786;2024-03-08T08:23:18;4.40;1.00
5392;DHT22;2719;53.624;9.786;2024-03-08T08:25:45;4.50;1.00
5392;DHT22;2719;53.624;9.786;2024-03-08T08:28:15;4.60;99.90
5392;DHT22;2719;53.624;9.786;2024-03-08T08:30:42;4.60;99.90
5392;DHT22;2719;53.624;9.786;2024-03-08T08:33:09;4.70;99.90
5392;DHT22;2719;53.624;9.786;2024-03-08T08:35:36;4.70;99.90
5392;DHT22;2719;53.624;9.786;2024-03-08T08:38:04;4.80;99.90
5392;DHT22;2719;53.624;9.786;2024-03-08T08:40:31;4.80;99.90
5392;DHT22;2719;53.624;9.786;2024-03-08T08:42:58;5.00;99.90
5392;DHT22;2719;53.624;9.786;2024-03-08T08:45:25;5.10;99.90
5392;DHT22;2719;53.624;9.786;2024-03-08T08:47:52;5.10;99.90
5392;DHT22;2719;53.624;9.786;2024-03-08T08:50:20;5.20;79.20
5392;DHT22;2719;53.624;9.786;2024-03-08T08:52:48;5.20;57.60
5392;DHT22;2719;53.624;9.786;2024-03-08T08:55:17;5.20;19.10
5392;DHT22;2719;53.624;9.786;2024-03-08T08:57:46;5.40;1.40
5392;DHT22;2719;53.624;9.786;2024-03-08T09:00:13;5.40;1.00
5392;DHT22;2719;53.624;9.786;2024-03-08T09:02:41;5.50;1.00
5392;DHT22;2719;53.624;9.786;2024-03-08T09:05:08;5.50;1.00
5392;DHT22;2719;53.624;9.786;2024-03-08T09:07:34;5.60;1.00
5392;DHT22;2719;53.624;9.786;2024-03-08T09:10:01;5.60;1.00
5392;DHT22;2719;53.624;9.786;2024-03-08T09:12:29;5.60;1.00
5392;DHT22;2719;53.624;9.786;2024-03-08T09:14:58;5.70;1.00
5392;DHT22;2719;53.624;9.786;2024-03-08T09:17:25;5.70;1.00
5392;DHT22;2719;53.624;9.786;2024-03-08T09:19:52;5.70;1.00
5392;DHT22;2719;53.624;9.786;2024-03-08T09:22:19;5.80;1.00
5392;DHT22;2719;53.624;9.786;2024-03-08T09:24:46;5.80;1.00
5392;DHT22;2719;53.624;9.786;2024-03-08T09:27:13;5.80;1.00
5392;DHT22;2719;53.624;9.786;2024-03-08T09:29:40;5.90;1.00
5392;DHT22;2719;53.624;9.786;2024-03-08T09:32:07;5.90;1.00
5392;DHT22;2719;53.624;9.786;2024-03-08T09:34:34;5.90;1.00
5392;DHT22;2719;53.624;9.786;2024-03-08T09:37:00;6.00;1.00
5392;DHT22;2719;53.624;9.786;2024-03-08T09:39:29;6.10;1.00
5392;DHT22;2719;53.624;9.786;2024-03-08T09:41:56;6.20;1.00
5392;DHT22;2719;53.624;9.786;2024-03-08T09:44:23;6.10;1.00
5392;DHT22;2719;53.624;9.786;2024-03-08T09:46:51;6.20;1.00
5392;DHT22;2719;53.624;9.786;2024-03-08T09:49:18;6.30;1.00
5392;DHT22;2719;53.624;9.786;2024-03-08T09:51:46;6.40;1.00
5392;DHT22;2719;53.624;9.786;2024-03-08T09:54:13;6.40;1.00
5392;DHT22;2719;53.624;9.786;2024-03-08T09:56:43;6.60;1.00
5392;DHT22;2719;53.624;9.786;2024-03-08T09:59:10;6.70;1.00
5392;DHT22;2719;53.624;9.786;2024-03-08T10:02:13;6.90;1.00
5392;DHT22;2719;53.624;9.786;2024-03-08T10:04:40;7.00;1.00
5392;DHT22;2719;53.624;9.786;2024-03-08T10:07:07;7.00;1.00
5392;DHT22;2719;53.624;9.786;2024-03-08T10:09:34;7.10;1.00
5392;DHT22;2719;53.624;9.786;2024-03-08T10:12:01;7.10;1.00
5392;DHT22;2719;53.624;9.786;2024-03-08T10:14:28;7.20;1.00
5392;DHT22;2719;53.624;9.786;2024-03-08T10:16:55;7.30;1.00
5392;DHT22;2719;53.624;9.786;2024-03-08T10:19:26;7.20;1.00
5392;DHT22;2719;53.624;9.786;2024-03-08T10:21:53;7.40;1.00
5392;DHT22;2719;53.624;9.786;2024-03-08T10:24:22;7.50;1.00
5392;DHT22;2719;53.624;9.786;2024-03-08T10:26:52;7.60;1.00
5392;DHT22;2719;53.624;9.786;2024-03-08T10:29:18;7.70;1.00
5392;DHT22;2719;53.624;9.786;2024-03-08T10:31:45;7.80;1.00
5392;DHT22;2719;53.624;9.786;2024-03-08T10:34:12;7.90;1.00
5392;DHT22;2719;53.624;9.786;2024-03-08T10:36:40;7.90;1.00
5392;DHT22;2719;53.624;9.786;2024-03-08T10:39:15;7.80;1.00
5392;DHT22;2719;53.624;9.786;2024-03-08T10:41:52;7.80;1.00
5392;DHT22;2719;53.624;9.786;2024-03-08T10:44:27;7.80;1.00
5392;DHT22;2719;53.624;9.786;2024-03-08T10:47:01;7.90;1.00
5392;DHT22;2719;53.624;9.786;2024-03-08T10:49:32;8.00;1.00
5392;DHT22;2719;53.624;9.786;2024-03-08T10:52:03;8.20;1.00
5392;DHT22;2719;53.624;9.786;2024-03-08T10:54:31;8.20;1.00
5392;DHT22;2719;53.624;9.786;2024-03-08T10:56:59;8.10;1.00
5392;DHT22;2719;53.624;9.786;2024-03-08T10:59:26;8.10;1.00
5392;DHT22;2719;53.624;9.786;2024-03-08T11:01:54;8.20;1.00
5392;DHT22;2719;53.624;9.786;2024-03-08T11:04:20;8.10;1.00
5392;DHT22;2719;53.624;9.786;2024-03-08T11:06:50;8.20;1.00
5392;DHT22;2719;53.624;9.786;2024-03-08T11:09:29;8.20;1.00
5392;DHT22;2719;53.624;9.786;2024-03-08T11:12:26;8.10;1.00
5392;DHT22;2719;53.624;9.786;2024-03-08T11:14:56;8.20;1.00
5392;DHT22;2719;53.624;9.786;2024-03-08T11:17:40;8.30;1.00
5392;DHT22;2719;53.624;9.786;2024-03-08T11:20:11;8.50;1.00
5392;DHT22;2719;53.624;9.786;2024-03-08T11:22:42;8.70;1.00
5392;DHT22;2719;53.624;9.786;2024-03-08T11:28:13;8.70;1.00
5392;DHT22;2719;53.624;9.786;2024-03-08T11:30:42;8.60;1.00
5392;DHT22;2719;53.624;9.786;2024-03-08T11:33:11;8.60;1.00
5392;DHT22;2719;53.624;9.786;2024-03-08T11:35:39;9.00;1.00
5392;DHT22;2719;53.624;9.786;2024-03-08T11:38:07;9.20;1.00
5392;DHT22;2719;53.624;9.786;2024-03-08T11:40:34;9.10;1.00
5392;DHT22;2719;53.624;9.786;2024-03-08T11:43:01;9.10;1.00
5392;DHT22;2719;53.624;9.786;2024-03-08T11:45:34;9.40;1.00
5392;DHT22;2719;53.624;9.786;2024-03-08T11:48:02;9.70;1.00
5392;DHT22;2719;53.624;9.786;2024-03-08T11:50:30;10.00;1.00
5392;DHT22;2719;53.624;9.786;2024-03-08T11:53:01;10.00;1.00
5392;DHT22;2719;53.624;9.786;2024-03-08T11:55:28;10.20;1.00
5392;DHT22;2719;53.624;9.786;2024-03-08T11:58:00;10.10;1.00
5392;DHT22;2719;53.624;9.786;2024-03-08T12:00:27;10.00;1.00
5392;DHT22;2719;53.624;9.786;2024-03-08T12:03:06;10.30;1.00
5392;DHT22;2719;53.624;9.786;2024-03-08T12:05:35;10.30;1.00
5392;DHT22;2719;53.624;9.786;2024-03-08T12:08:03;10.50;1.00
5392;DHT22;2719;53.624;9.786;2024-03-08T12:10:32;10.60;1.00
5392;DHT22;2719;53.624;9.786;2024-03-08T12:13:00;10.30;1.00
5392;DHT22;2719;53.624;9.786;2024-03-08T12:15:29;10.60;1.00
5392;DHT22;2719;53.624;9.786;2024-03-08T12:17:58;10.60;1.00
5392;DHT22;2719;53.624;9.786;2024-03-08T12:20:28;10.50;1.00
5392;DHT22;2719;53.624;9.786;2024-03-08T12:22:56;10.70;1.00
5392;DHT22;2719;53.624;9.786;2024-03-08T12:25:26;10.70;1.00
5392;DHT22;2719;53.624;9.786;2024-03-08T12:27:53;10.80;1.00
5392;DHT22;2719;53.624;9.786;2024-03-08T12:30:23;11.00;1.00
5392;DHT22;2719;53.624;9.786;2024-03-08T12:32:54;10.70;1.00
5392;DHT22;2719;53.624;9.786;2024-03-08T12:35:22;11.10;1.00
5392;DHT22;2719;53.624;9.786;2024-03-08T12:37:52;10.90;1.00
5392;DHT22;2719;53.624;9.786;2024-03-08T12:40:19;11.00;1.00
5392;DHT22;2719;53.624;9.786;2024-03-08T12:42:52;10.90;1.00
5392;DHT22;2719;53.624;9.786;2024-03-08T12:45:18;11.10;1.00
5392;DHT22;2719;53.624;9.786;2024-03-08T12:47:46;11.30;1.00
5392;DHT22;2719;53.624;9.786;2024-03-08T12:50:13;11.20;1.00
5392;DHT22;2719;53.624;9.786;2024-03-08T12:52:42;11.40;1.00
5392;DHT22;2719;53.624;9.786;2024-03-08T12:55:10;11.40;1.00
5392;DHT22;2719;53.624;9.786;2024-03-08T12:57:38;11.30;1.00
5392;DHT22;2719;53.624;9.786;2024-03-08T13:00:05;11.40;1.00
5392;DHT22;2719;53.624;9.786;2024-03-08T13:02:38;11.40;1.00
5392;DHT22;2719;53.624;9.786;2024-03-08T13:05:06;11.40;1.00
5392;DHT22;2719;53.624;9.786;2024-03-08T13:07:35;11.60;1.00
5392;DHT22;2719;53.624;9.786;2024-03-08T13:10:03;11.90;1.00
5392;DHT22;2719;53.624;9.786;2024-03-08T13:12:31;12.00;1.00
5392;DHT22;2719;53.624;9.786;2024-03-08T13:14:58;11.90;1.00
5392;DHT22;2719;53.624;9.786;2024-03-08T13:17:25;12.00;1.00
5392;DHT22;2719;53.624;9.786;2024-03-08T13:19:52;12.00;1.00
5392;DHT22;2719;53.624;9.786;2024-03-08T13:22:22;12.00;1.00
5392;DHT22;2719;53.624;9.786;2024-03-08T13:24:50;12.30;1.00
5392;DHT22;2719;53.624;9.786;2024-03-08T13:27:17;12.20;1.00
5392;DHT22;2719;53.624;9.786;2024-03-08T13:29:47;12.20;1.00
5392;DHT22;2719;53.624;9.786;2024-03-08T13:32:14;12.20;1.00
5392;DHT22;2719;53.624;9.786;2024-03-08T13:34:41;12.20;1.00
5392;DHT22;2719;53.624;9.786;2024-03-08T13:37:08;12.30;1.00
5392;DHT22;2719;53.624;9.786;2024-03-08T13:39:35;12.40;1.00
5392;DHT22;2719;53.624;9.786;2024-03-08T13:42:07;12.30;1.00
5392;DHT22;2719;53.624;9.786;2024-03-08T13:44:35;12.20;1.00
5392;DHT22;2719;53.624;9.786;2024-03-08T13:47:03;12.10;1.00
5392;DHT22;2719;53.624;9.786;2024-03-08T13:49:30;12.30;1.00
5392;DHT22;2719;53.624;9.786;2024-03-08T13:51:58;12.10;1.00
5392;DHT22;2719;53.624;9.786;2024-03-08T13:54:25;12.20;1.00
5392;DHT22;2719;53.624;9.786;2024-03-08T13:56:52;12.20;1.00
5392;DHT22;2719;53.624;9.786;2024-03-08T13:59:19;12.40;1.00
5392;DHT22;2719;53.624;9.786;2024-03-08T14:01:48;12.20;1.00
5392;DHT22;2719;53.624;9.786;2024-03-08T14:04:16;12.40;1.00
5392;DHT22;2719;53.624;9.786;2024-03-08T14:06:43;12.60;1.00
5392;DHT22;2719;53.624;9.786;2024-03-08T14:09:10;12.60;1.00
5392;DHT22;2719;53.624;9.786;2024-03-08T14:11:42;12.80;1.00
5392;DHT22;2719;53.624;9.786;2024-03-08T14:14:09;12.70;1.00
5392;DHT22;2719;53.624;9.786;2024-03-08T14:16:37;12.70;1.00
5392;DHT22;2719;53.624;9.786;2024-03-08T14:19:04;12.60;1.00
5392;DHT22;2719;53.624;9.786;2024-03-08T14:21:33;12.70;1.00
5392;DHT22;2719;53.624;9.786;2024-03-08T14:23:59;12.30;1.00
5392;DHT22;2719;53.624;9.786;2024-03-08T14:26:26;12.10;1.00
5392;DHT22;2719;53.624;9.786;2024-03-08T14:28:53;12.20;1.00
5392;DHT22;2719;53.624;9.786;2024-03-08T14:31:19;12.30;1.00
5392;DHT22;2719;53.624;9.786;2024-03-08T14:33:49;12.50;1.00
5392;DHT22;2719;53.624;9.786;2024-03-08T14:36:16;12.30;1.00
5392;DHT22;2719;53.624;9.786;2024-03-08T14:38:46;12.20;1.00
5392;DHT22;2719;53.624;9.786;2024-03-08T14:41:13;12.10;1.00
5392;DHT22;2719;53.624;9.786;2024-03-08T14:43:42;12.00;1.00
5392;DHT22;2719;53.624;9.786;2024-03-08T14:46:10;12.00;1.00
5392;DHT22;2719;53.624;9.786;2024-03-08T14:48:39;12.00;1.00
5392;DHT22;2719;53.624;9.786;2024-03-08T14:51:06;12.00;1.00
5392;DHT22;2719;53.624;9.786;2024-03-08T14:53:36;12.10;1.00
5392;DHT22;2719;53.624;9.786;2024-03-08T14:56:07;11.90;1.00
5392;DHT22;2719;53.624;9.786;2024-03-08T14:58:34;12.00;1.00
5392;DHT22;2719;53.624;9.786;2024-03-08T15:01:03;12.00;1.00
5392;DHT22;2719;53.624;9.786;2024-03-08T15:03:34;11.90;1.00
5392;DHT22;2719;53.624;9.786;2024-03-08T15:06:01;12.00;1.00
5392;DHT22;2719;53.624;9.786;2024-03-08T15:08:31;12.00;1.00
5392;DHT22;2719;53.624;9.786;2024-03-08T15:10:58;11.90;1.00
5392;DHT22;2719;53.624;9.786;2024-03-08T15:13:26;11.80;1.00
5392;DHT22;2719;53.624;9.786;2024-03-08T15:15:59;11.80;1.00
5392;DHT22;2719;53.624;9.786;2024-03-08T15:18:26;11.60;1.00
5392;DHT22;2719;53.624;9.786;2024-03-08T15:20:56;11.70;1.00
5392;DHT22;2719;53.624;9.786;2024-03-08T15:23:22;11.60;1.00
5392;DHT22;2719;53.624;9.786;2024-03-08T15:25:50;11.70;1.00
5392;DHT22;2719;53.624;9.786;2024-03-08T15:28:16;11.40;1.00
5392;DHT22;2719;53.624;9.786;2024-03-08T15:30:47;11.40;1.00
5392;DHT22;2719;53.624;9.786;2024-03-08T15:33:20;11.40;1.00
5392;DHT22;2719;53.624;9.786;2024-03-08T15:35:51;11.00;1.00
5392;DHT22;2719;53.624;9.786;2024-03-08T15:38:24;11.00;1.00
5392;DHT22;2719;53.624;9.786;2024-03-08T15:40:52;11.00;1.00
5392;DHT22;2719;53.624;9.786;2024-03-08T15:43:20;10.90;1.00
5392;DHT22;2719;53.624;9.786;2024-03-08T15:45:48;10.90;1.00
5392;DHT22;2719;53.624;9.786;2024-03-08T15:48:16;10.90;1.00
5392;DHT22;2719;53.624;9.786;2024-03-08T15:50:42;10.90;1.00
5392;DHT22;2719;53.624;9.786;2024-03-08T15:53:09;11.00;1.00
5392;DHT22;2719;53.624;9.786;2024-03-08T15:55:37;11.00;1.00
5392;DHT22;2719;53.624;9.786;2024-03-08T15:58:06;10.80;1.00
5392;DHT22;2719;53.624;9.786;2024-03-08T16:00:33;10.80;1.00
5392;DHT22;2719;53.624;9.786;2024-03-08T16:03:03;10.70;1.00
5392;DHT22;2719;53.624;9.786;2024-03-08T16:05:32;10.80;1.00
5392;DHT22;2719;53.624;9.786;2024-03-08T16:07:59;10.90;1.00
5392;DHT22;2719;53.624;9.786;2024-03-08T16:10:26;11.00;1.00
5392;DHT22;2719;53.624;9.786;2024-03-08T16:12:54;10.90;1.00
5392;DHT22;2719;53.624;9.786;2024-03-08T16:15:20;10.80;1.00
5392;DHT22;2719;53.624;9.786;2024-03-08T16:17:47;10.70;1.00
5392;DHT22;2719;53.624;9.786;2024-03-08T16:20:15;10.50;1.00
5392;DHT22;2719;53.624;9.786;2024-03-08T16:22:43;10.40;1.00
5392;DHT22;2719;53.624;9.786;2024-03-08T16:25:10;10.40;1.00
5392;DHT22;2719;53.624;9.786;2024-03-08T16:27:39;10.40;1.00
5392;DHT22;2719;53.624;9.786;2024-03-08T16:30:06;10.50;1.00
5392;DHT22;2719;53.624;9.786;2024-03-08T16:32:35;10.40;1.00